Latest Weather Observations for Lucas Heights

IDN60901

Issued at 10:11 pm EST Thursday 28 July 2016 (issued every 10 minutes, with the page automatically refreshed every 10 minutes)

About weather observations | Map of Sydney area stations | Latest observations for Sydney area | Other Formats
Station Details ID: 066023 Name: LUCAS HEIGHTS AWS Lat: -34.05 Lon: 150.98 Height: 140.0 m
Data from the previous 72 hours. | See also: Recent months for locations in New South Wales
Date/Time
EST
Temp
°C
App
Temp
°C
Dew
Point
°C
Rel
Hum
%
Delta-T
°C
Wind Press
QNH
hPa
Press
MSL
hPa
Rain since
9am
mm
Dir  Spd
km/h
Gust
km/h
Spd
kts
Gust
kts
28/10:00pm 8.6 2.8 2.5 65 2.6 WSW 22 28 12 15 1022.9 - 0.0
28/09:45pm 8.7 2.9 2.5 65 2.6 WSW 22 30 12 16 1022.8 - 0.0
28/09:30pm 8.8 3.4 2.6 65 2.6 W 20 28 11 15 1022.8 - 0.0
28/09:15pm 8.7 3.3 2.6 65 2.6 WSW 20 28 11 15 1022.8 - 0.0
28/09:00pm 8.9 3.7 2.6 64 2.7 WSW 19 28 10 15 1022.9 - 0.0
28/08:45pm 8.9 3.7 2.6 64 2.7 WSW 19 30 10 16 1022.9 - 0.0
28/08:30pm 8.7 3.5 2.7 66 2.6 WSW 19 26 10 14 1022.9 - 0.0
28/08:15pm 8.5 4.4 2.4 65 2.6 WSW 13 20 7 11 1022.9 - 0.0
28/08:00pm 8.8 4.4 2.6 65 2.6 WSW 15 19 8 10 1022.8 - 0.0
28/07:45pm 9.1 5.1 2.6 64 2.8 WSW 13 19 7 10 1022.8 - 0.0
28/07:30pm 9.9 6.2 2.6 60 3.1 W 11 19 6 10 1022.7 - 0.0
28/07:15pm 10.6 5.4 2.7 58 3.4 W 19 24 10 13 1022.6 - 0.0
28/07:00pm 11.0 5.8 2.7 56 3.6 W 19 28 10 15 1022.6 - 0.0
28/06:45pm 11.4 6.6 2.7 55 3.8 W 17 30 9 16 1022.5 - 0.0
28/06:30pm 11.8 6.1 2.7 53 4.0 W 22 35 12 19 1022.3 - 0.0
28/06:15pm 12.0 4.7 2.7 53 4.1 WSW 30 41 16 22 1022.1 - 0.0
28/06:00pm 12.2 6.5 2.7 52 4.2 WSW 22 33 12 18 1021.9 - 0.0
28/05:45pm 12.4 6.7 3.0 52 4.2 WSW 22 33 12 18 1021.6 - 0.0
28/05:30pm 12.8 7.1 3.1 51 4.3 WSW 22 32 12 17 1021.5 - 0.0
28/05:15pm 13.4 7.3 3.0 49 4.7 W 24 30 13 16 1021.3 - 0.0
28/05:00pm 14.1 8.0 3.0 47 5.0 WSW 24 39 13 21 1021.1 - 0.0
28/04:45pm 14.9 8.5 3.3 45 5.3 WSW 26 39 14 21 1021.0 - 0.0
28/04:30pm 15.6 9.3 3.8 45 5.5 W 26 37 14 20 1020.8 - 0.0
28/04:15pm 16.1 11.2 4.0 44 5.7 WSW 19 30 10 16 1020.7 - 0.0
28/04:00pm 16.5 10.6 3.9 43 5.9 WSW 24 33 13 18 1020.7 - 0.0
28/03:45pm 17.1 11.6 3.8 41 6.2 WSW 22 32 12 17 1020.7 - 0.0
28/03:30pm 17.5 11.5 3.6 39 6.5 WSW 24 33 13 18 1020.6 - 0.0
28/03:15pm 17.8 12.8 3.6 39 6.7 W 19 30 10 16 1020.5 - 0.0
28/03:00pm 17.8 12.2 3.6 39 6.7 W 22 33 12 18 1020.5 - 0.0
28/02:45pm 18.0 13.5 4.2 40 6.6 WNW 17 24 9 13 1020.5 - 0.0
28/02:30pm 17.6 12.6 3.7 39 6.5 WNW 19 32 10 17 1020.5 - 0.0
28/02:15pm 17.4 13.2 3.6 40 6.5 WNW 15 24 8 13 1020.8 - 0.0
28/02:00pm 17.3 13.5 3.7 40 6.4 WNW 13 22 7 12 1020.9 - 0.0
28/01:45pm 17.0 12.3 3.2 39 6.4 WNW 17 26 9 14 1021.1 - 0.0
28/01:30pm 16.9 12.6 3.2 40 6.3 WNW 15 20 8 11 1021.3 - 0.0
28/01:15pm 16.6 12.6 3.1 40 6.2 WNW 13 22 7 12 1021.6 - 0.0
28/01:00pm 16.5 13.0 3.3 41 6.1 WNW 11 19 6 10 1021.8 - 0.0
28/12:45pm 16.0 11.6 2.7 41 6.0 W 15 20 8 11 1022.0 - 0.0
28/12:30pm 15.6 11.2 2.9 42 5.8 WNW 15 20 8 11 1022.2 - 0.0
28/12:15pm 15.3 11.8 3.4 45 5.5 W 11 19 6 10 1022.4 - 0.0
28/12:00pm 14.8 10.9 3.6 47 5.1 WNW 13 19 7 10 1022.7 - 0.0
28/11:45am 14.6 10.9 4.2 49 4.8 W 13 19 7 10 1023.1 - 0.0
28/11:30am 14.3 10.5 4.0 50 4.7 WNW 13 19 7 10 1023.3 - 0.0
28/11:15am 14.1 10.3 4.0 50 4.6 WNW 13 19 7 10 1023.6 - 0.0
28/11:00am 14.0 10.2 3.9 50 4.6 W 13 19 7 10 1023.8 - 0.0
28/10:45am 13.5 9.7 3.7 51 4.5 WSW 13 19 7 10 1023.9 - 0.0
28/10:30am 13.0 8.4 3.5 52 4.3 W 17 26 9 14 1024.2 - 0.0
28/10:15am 12.6 7.0 3.4 53 4.1 WSW 22 30 12 16 1024.3 - 0.0
28/10:00am 12.2 7.0 3.4 55 3.9 WSW 20 30 11 16 1024.2 - 0.0
28/09:45am 11.8 6.6 3.3 56 3.8 WSW 20 30 11 16 1024.1 - 0.0
28/09:30am 11.5 6.2 3.2 56 3.7 WSW 20 30 11 16 1023.9 - 0.0
28/09:15am 11.1 6.0 3.2 58 3.5 WSW 19 28 10 15 1023.9 - 0.0
28/09:00am 10.7 5.4 3.0 59 3.4 WSW 20 30 11 16 1024.0 - 0.0
28/08:45am 10.4 5.3 3.0 60 3.2 WSW 19 28 10 15 1024.0 - 0.0
28/08:30am 9.9 4.8 2.9 62 3.0 WSW 19 28 10 15 1024.0 - 0.0
28/08:15am 9.4 5.0 2.7 63 2.9 WSW 15 24 8 13 1023.9 - 0.0
28/08:00am 9.0 4.5 2.4 63 2.8 WSW 15 20 8 11 1023.9 - 0.0
28/07:45am 8.8 3.6 2.2 63 2.8 WSW 19 28 10 15 1023.8 - 0.0
28/07:30am 8.5 1.9 2.2 64 2.6 WSW 26 37 14 20 1023.5 - 0.0
28/07:15am 8.0 1.8 2.1 66 2.5 WSW 24 30 13 16 1023.3 - 0.0
28/07:00am 7.9 3.0 2.0 66 2.5 WSW 17 22 9 12 1023.1 - 0.0
28/06:45am 7.9 2.7 2.2 67 2.4 WSW 19 28 10 15 1022.7 - 0.0
28/06:30am 8.1 2.3 2.3 67 2.4 WSW 22 26 12 14 1022.5 - 0.0
28/06:15am 8.1 2.4 2.8 69 2.3 WSW 22 28 12 15 1022.3 - 0.0
28/06:00am 6.9 2.5 2.8 75 1.7 WSW 15 24 8 13 1022.3 - 0.0
28/05:45am 6.8 3.5 2.3 73 1.9 WSW 9 17 5 9 1022.2 - 0.0
28/05:30am 7.8 2.7 2.8 70 2.1 WSW 19 22 10 12 1022.0 - 0.0
28/05:15am 8.1 2.4 3.1 71 2.1 WSW 22 24 12 13 1021.7 - 0.0
28/05:00am 7.9 2.3 3.2 72 2.0 WSW 22 26 12 14 1021.4 - 0.0
28/04:45am 7.8 2.6 3.4 74 1.9 WSW 20 22 11 12 1021.2 - 0.0
28/04:30am 7.3 2.9 2.7 72 1.9 WSW 15 20 8 11 1021.1 - 0.0
28/04:15am 8.4 3.3 3.1 69 2.3 W 19 22 10 12 1020.9 - 0.0
28/04:00am 8.6 3.5 3.3 69 2.3 W 19 22 10 12 1020.7 - 0.0
28/03:45am 8.6 3.9 3.3 69 2.3 W 17 19 9 10 1020.8 - 0.0
28/03:30am 8.8 4.1 3.3 68 2.4 W 17 19 9 10 1020.9 - 0.0
28/03:15am 9.2 4.9 3.3 66 2.6 W 15 19 8 10 1020.9 - 0.0
28/03:00am 9.4 5.2 3.6 67 2.5 WNW 15 19 8 10 1020.9 - 0.0
28/02:45am 8.3 4.4 3.3 71 2.2 WNW 13 17 7 9 1021.0 - 0.0
28/02:30am 8.5 4.5 3.1 69 2.3 W 13 19 7 10 1021.0 - 0.0
28/02:15am 9.0 4.0 3.4 68 2.4 W 19 20 10 11 1021.1 - 0.0
28/02:00am 9.0 3.8 3.4 68 2.4 WSW 20 24 11 13 1021.3 - 0.0
28/01:45am 9.2 3.2 3.4 67 2.5 WSW 24 33 13 18 1021.3 - 0.0
28/01:30am 9.2 2.9 3.5 67 2.5 WSW 26 32 14 17 1021.3 - 0.0
28/01:15am 9.4 4.2 3.4 66 2.6 W 20 24 11 13 1021.3 - 0.0
28/01:00am 9.9 3.9 3.6 65 2.8 W 24 30 13 16 1021.2 - 0.0
28/12:45am 10.0 3.3 3.7 65 2.8 W 28 30 15 16 1021.2 - 0.0
28/12:30am 10.0 4.1 3.8 65 2.7 W 24 30 13 16 1021.2 - 0.0
28/12:15am 9.6 3.6 3.6 66 2.6 WSW 24 30 13 16 1020.9 - 0.0
28/12:00am 9.0 3.8 3.5 68 2.4 WSW 20 30 11 16 1020.8 - 0.0
 
Date/Time
EST
Temp
°C
App
Temp
°C
Dew
Point
°C
Rel
Hum
%
Delta-T
°C
Wind Press
QNH
hPa
Press
MSL
hPa
Rain since
9am
mm
Dir  Spd
km/h
Gust
km/h
Spd
kts
Gust
kts
27/11:45pm 9.2 4.9 3.4 67 2.5 SW 15 24 8 13 1020.7 - 0.0
27/11:30pm 9.4 5.5 3.3 65 2.7 WSW 13 19 7 10 1020.6 - 0.0
27/11:15pm 9.6 6.1 3.5 66 2.7 W 11 15 6 8 1020.4 - 0.0
27/11:00pm 9.6 6.1 3.4 65 2.7 WNW 11 15 6 8 1020.1 - 0.0
27/10:45pm 9.8 5.9 3.5 65 2.8 W 13 17 7 9 1020.2 - 0.0
27/10:30pm 10.0 6.1 3.4 63 2.9 WNW 13 17 7 9 1020.1 - 0.0
27/10:15pm 10.6 6.0 3.5 61 3.1 W 17 22 9 12 1020.2 - 0.0
27/10:00pm 10.6 5.6 3.6 62 3.1 W 19 22 10 12 1020.2 - 0.0
27/09:45pm 10.6 5.6 3.6 62 3.1 WNW 19 22 10 12 1020.1 - 0.0
27/09:30pm 10.6 6.0 3.6 62 3.1 WNW 17 22 9 12 1019.9 - 0.0
27/09:15pm 10.9 5.9 3.6 60 3.2 WNW 19 24 10 13 1019.8 - 0.0
27/09:00pm 11.0 6.0 3.6 60 3.3 WNW 19 24 10 13 1019.5 - 0.0
27/08:45pm 11.0 6.8 3.7 60 3.3 WNW 15 24 8 13 1019.3 - 0.0
27/08:30pm 11.2 7.0 3.7 60 3.3 W 15 24 8 13 1019.0 - 0.0
27/08:15pm 11.3 7.1 3.7 59 3.4 W 15 24 8 13 1018.8 - 0.0
27/08:00pm 11.5 6.9 3.6 58 3.5 W 17 28 9 15 1018.6 - 0.0
27/07:45pm 11.8 6.6 3.6 57 3.7 W 20 33 11 18 1018.4 - 0.0
27/07:30pm 12.1 6.2 3.7 56 3.8 W 24 39 13 21 1018.3 - 0.0
27/07:15pm 12.1 5.8 3.8 57 3.7 W 26 39 14 21 1017.9 - 0.0
27/07:00pm 12.1 6.2 3.7 56 3.8 W 24 37 13 20 1017.6 - 0.0
27/06:45pm 12.2 7.0 3.7 56 3.8 W 20 32 11 17 1017.4 - 0.0
27/06:30pm 12.2 7.2 3.8 56 3.8 W 19 30 10 16 1017.1 - 0.0
27/06:15pm 12.2 8.0 3.6 55 3.9 W 15 32 8 17 1016.8 - 0.0
27/06:00pm 12.5 8.6 3.6 54 4.0 W 13 19 7 10 1016.5 - 0.0
27/05:45pm 12.9 7.9 3.5 53 4.2 W 19 28 10 15 1016.2 - 0.0
27/05:30pm 13.5 7.1 3.4 50 4.6 W 26 37 14 20 1015.8 - 0.0
27/05:15pm 13.8 6.3 3.3 49 4.7 W 32 48 17 26 1015.5 - 0.0
27/05:00pm 14.2 6.5 3.3 48 4.9 W 33 52 18 28 1015.2 - 0.0
27/04:45pm 14.7 7.0 3.4 46 5.2 W 33 52 18 28 1015.0 - 0.0
27/04:30pm 15.0 7.5 3.5 46 5.3 W 32 44 17 24 1014.7 - 0.0
27/04:15pm 15.3 9.0 3.6 45 5.4 W 26 39 14 21 1014.5 - 0.0
27/04:00pm 15.5 8.8 3.7 45 5.5 W 28 41 15 22 1014.4 - 0.0
27/03:45pm 15.6 9.3 3.6 44 5.5 W 26 48 14 26 1014.2 - 0.0
27/03:30pm 15.6 8.1 3.4 44 5.6 W 32 44 17 24 1014.0 - 0.0
27/03:15pm 15.6 7.9 3.4 44 5.6 W 33 54 18 29 1013.8 - 0.0
27/03:00pm 15.8 7.4 3.5 43 5.7 W 37 59 20 32 1013.6 - 0.0
27/02:45pm 15.9 8.8 3.5 43 5.7 W 30 50 16 27 1013.5 - 0.0
27/02:30pm 15.9 8.2 3.3 43 5.8 W 33 48 18 26 1013.3 - 0.0
27/02:15pm 16.2 8.5 3.4 42 5.9 W 33 59 18 32 1013.3 - 0.0
27/02:00pm 16.3 8.6 3.3 42 6.0 W 33 56 18 30 1012.9 - 0.0
27/01:45pm 16.3 8.5 3.1 41 6.1 W 33 54 18 29 1012.8 - 0.0
27/01:30pm 16.1 8.5 3.1 41 6.0 W 32 46 17 25 1012.6 - 0.0
27/01:15pm 16.0 7.0 2.6 40 6.1 W 39 54 21 29 1012.6 - 0.0
27/01:00pm 16.0 8.2 2.8 41 6.0 W 33 61 18 33 1012.6 - 0.0
27/12:45pm 16.2 8.6 2.8 40 6.1 W 32 48 17 26 1012.4 - 0.0
27/12:30pm 16.0 9.1 2.7 41 6.0 W 28 44 15 24 1012.4 - 0.0
27/12:15pm 16.1 8.9 2.9 41 6.0 W 30 48 16 26 1012.4 - 0.0
27/12:00pm 16.1 8.5 2.7 40 6.1 W 32 50 17 27 1012.3 - 0.0
27/11:45am 15.9 7.8 3.0 42 5.9 W 35 57 19 31 1012.3 - 0.0
27/11:30am 15.8 8.4 4.1 45 5.5 W 32 46 17 25 1012.2 - 0.0
27/11:15am 15.5 7.6 4.2 47 5.3 WNW 35 46 19 25 1012.0 - 0.0
27/11:00am 15.5 8.6 4.5 48 5.2 WNW 30 43 16 23 1012.2 - 0.0
27/10:45am 15.1 8.2 4.6 49 4.9 WNW 30 41 16 22 1012.4 - 0.0
27/10:30am 14.9 8.8 4.9 51 4.7 WNW 26 39 14 21 1012.5 - 0.0
27/10:15am 15.0 8.6 5.1 51 4.7 WNW 28 39 15 21 1012.6 - 0.0
27/10:00am 14.8 9.6 5.4 53 4.5 NW 22 44 12 24 1012.4 - 0.0
27/09:45am 14.3 9.6 5.3 54 4.3 NW 19 28 10 15 1012.2 - 0.0
27/09:30am 13.7 8.9 4.9 55 4.1 NW 19 32 10 17 1012.1 - 0.0
27/09:15am 13.4 8.4 4.8 56 4.0 NW 20 30 11 16 1011.9 - 0.0
27/09:00am 13.0 7.2 4.6 56 3.9 NW 24 33 13 18 1012.0 - 0.0
27/08:45am 12.8 6.6 4.5 57 3.8 NW 26 37 14 20 1011.9 - 0.0
27/08:30am 12.5 6.7 4.3 57 3.7 NW 24 35 13 19 1011.8 - 0.0
27/08:15am 12.1 5.8 4.0 57 3.7 NW 26 37 14 20 1011.9 - 0.0
27/08:00am 11.6 4.9 3.9 59 3.5 NW 28 39 15 21 1011.7 - 0.0
27/07:45am 11.0 3.5 3.7 60 3.3 NW 32 41 17 22 1011.5 - 0.0
27/07:30am 10.6 3.5 3.5 61 3.1 NNW 30 41 16 22 1011.4 - 0.0
27/07:15am 10.1 3.0 3.3 62 3.0 NNW 30 37 16 20 1011.4 - 0.0
27/07:00am 10.0 3.2 3.2 62 3.0 NNW 28 41 15 22 1011.4 - 0.0
27/06:45am 9.9 3.1 3.2 63 2.9 NNW 28 33 15 18 1011.4 - 0.0
27/06:30am 9.8 3.0 3.2 63 2.9 NW 28 35 15 19 1011.4 - 0.0
27/06:15am 9.5 2.7 3.3 65 2.7 NW 28 37 15 20 1011.4 - 0.0
27/06:00am 9.4 3.0 3.2 65 2.7 NW 26 33 14 18 1011.3 - 0.0
27/05:45am 9.6 2.4 3.2 64 2.8 NW 30 37 16 20 1011.2 - 0.0
27/05:30am 9.7 2.9 3.0 63 2.9 NW 28 37 15 20 1011.3 - 0.0
27/05:15am 9.7 2.5 2.8 62 3.0 NW 30 37 16 20 1011.4 - 0.0
27/05:00am 10.1 2.3 2.7 60 3.2 NW 33 41 18 22 1011.5 - 0.0
27/04:45am 10.5 2.7 2.8 59 3.3 NW 33 46 18 25 1011.6 - 0.0
27/04:30am 10.1 2.5 2.8 60 3.2 NNW 32 43 17 23 1011.4 - 0.0
27/04:15am 9.9 2.1 3.0 62 3.0 NW 33 39 18 21 1011.6 - 0.0
27/04:00am 8.8 1.0 2.9 66 2.5 NNW 33 39 18 21 1011.8 - 0.0
27/03:45am 8.4 1.9 2.6 67 2.5 NNW 26 33 14 18 1011.8 - 0.0
27/03:30am 8.6 3.2 2.7 66 2.5 NNW 20 28 11 15 1012.0 - 0.0
27/03:15am 8.6 2.5 2.8 67 2.5 NNW 24 30 13 16 1012.1 - 0.0
27/03:00am 8.0 2.9 2.8 70 2.2 N 19 24 10 13 1012.2 - 0.0
27/02:45am 7.9 3.9 2.9 70 2.1 N 13 19 7 10 1012.6 - 0.0
27/02:30am 8.0 4.4 2.7 69 2.2 N 11 15 6 8 1012.9 - 0.0
27/02:15am 9.3 5.3 3.0 65 2.7 NNW 13 17 7 9 1013.3 - 0.0
27/02:00am 9.9 5.6 3.1 62 3.0 NW 15 19 8 10 1013.7 - 0.0
27/01:45am 10.0 4.9 3.2 62 3.0 NW 19 22 10 12 1013.8 - 0.0
27/01:30am 10.0 5.0 3.4 63 2.9 NW 19 24 10 13 1013.6 - 0.0
27/01:15am 9.4 3.8 3.3 65 2.7 NW 22 28 12 15 1013.6 - 0.0
27/01:00am 9.3 4.6 3.1 65 2.7 NW 17 24 9 13 1013.6 - 0.0
27/12:45am 9.6 4.9 3.2 64 2.8 NNW 17 24 9 13 1013.7 - 0.0
27/12:30am 9.3 4.1 3.4 66 2.6 NNW 20 24 11 13 1013.8 - 0.0
27/12:15am 7.6 2.7 2.2 68 2.2 NNW 17 24 9 13 1013.9 - 0.0
27/12:00am 8.1 4.4 2.4 67 2.4 N 11 17 6 9 1014.0 - 0.0
 
Date/Time
EST
Temp
°C
App
Temp
°C
Dew
Point
°C
Rel
Hum
%
Delta-T
°C
Wind Press
QNH
hPa
Press
MSL
hPa
Rain since
9am
mm
Dir  Spd
km/h
Gust
km/h
Spd
kts
Gust
kts
26/11:45pm 7.8 4.1 2.5 69 2.2 N 11 17 6 9 1014.2 - 0.0
26/11:30pm 7.6 3.9 2.2 68 2.2 N 11 17 6 9 1014.3 - 0.0
26/11:15pm 7.5 3.7 1.6 66 2.4 N 11 17 6 9 1014.4 - 0.0
26/11:00pm 7.4 4.3 1.5 66 2.4 NNE 7 11 4 6 1014.5 - 0.0
26/10:45pm 7.7 4.6 1.4 64 2.6 N 7 11 4 6 1014.6 - 0.0
26/10:30pm 8.1 4.6 1.4 62 2.8 NNW 9 17 5 9 1014.8 - 0.0
26/10:15pm 8.9 4.2 1.2 58 3.2 WNW 15 17 8 9 1014.6 - 0.0
26/10:00pm 9.6 5.0 1.3 56 3.5 WNW 15 17 8 9 1014.5 - 0.0
26/09:45pm 10.0 5.4 1.3 54 3.6 W 15 17 8 9 1014.5 - 0.0
26/09:30pm 10.3 6.0 1.3 53 3.8 W 13 17 7 9 1014.5 - 0.0
26/09:15pm 10.5 6.3 1.5 53 3.8 W 13 17 7 9 1014.6 - 0.0
26/09:00pm 10.2 4.9 1.6 55 3.6 W 19 22 10 12 1014.7 - 0.0
26/08:45pm 10.3 5.3 1.6 55 3.7 W 17 20 9 11 1014.7 - 0.0
26/08:30pm 10.7 5.8 1.8 54 3.8 WSW 17 20 9 11 1014.8 - 0.0
26/08:15pm 10.7 5.4 1.9 54 3.8 W 19 22 10 12 1014.8 - 0.0
26/08:00pm 11.3 6.4 1.8 52 4.1 W 17 19 9 10 1014.7 - 0.0
26/07:45pm 11.8 6.9 1.8 50 4.3 W 17 22 9 12 1014.6 - 0.0
26/07:30pm 11.8 6.5 1.8 50 4.3 W 19 22 10 12 1014.5 - 0.0
26/07:15pm 12.2 6.7 1.7 48 4.5 W 20 28 11 15 1014.4 - 0.0
26/07:00pm 12.3 5.7 1.8 48 4.5 W 26 30 14 16 1014.2 - 0.0
26/06:45pm 12.6 6.3 1.8 47 4.7 WNW 24 35 13 19 1014.1 - 0.0
26/06:30pm 12.7 6.5 1.9 47 4.7 WNW 24 28 13 15 1014.0 - 0.0
26/06:15pm 12.8 7.3 2.1 48 4.7 WNW 20 28 11 15 1013.9 - 0.0
26/06:00pm 13.1 7.6 2.0 47 4.8 WNW 20 28 11 15 1013.9 - 0.0
26/05:45pm 13.3 8.0 2.0 46 4.9 WNW 19 28 10 15 1013.8 - 0.0
26/05:30pm 13.9 8.4 2.0 44 5.2 WNW 20 28 11 15 1013.5 - 0.0
26/05:15pm 14.5 8.7 2.2 43 5.5 WNW 22 37 12 20 1013.2 - 0.0
26/05:00pm 15.0 9.2 2.1 41 5.7 WNW 22 32 12 17 1013.1 - 0.0
26/04:45pm 15.6 10.2 2.5 41 5.9 NW 20 30 11 16 1012.9 - 0.0
26/04:30pm 15.8 13.5 5.5 50 5.0 - 7 26 4 14 1012.8 - 0.0
26/04:15pm 16.0 13.3 5.6 50 5.0 ENE 9 13 5 7 1012.8 - 0.0
26/04:00pm 16.2 13.9 5.5 49 5.2 ENE 7 11 4 6 1012.8 - 0.0
26/03:45pm 16.2 13.5 5.4 48 5.2 ENE 9 13 5 7 1012.9 - 0.0
26/03:30pm 16.3 13.1 5.2 47 5.3 ENE 11 17 6 9 1012.9 - 0.0
26/03:15pm 16.6 13.9 5.4 47 5.4 NE 9 15 5 8 1012.9 - 0.0
26/03:00pm 16.6 13.4 5.3 47 5.4 ENE 11 15 6 8 1012.9 - 0.0
26/02:45pm 16.9 13.9 3.9 42 6.1 N 9 13 5 7 1012.9 - 0.0
26/02:30pm 17.3 14.6 3.5 39 6.4 NW 7 15 4 8 1012.8 - 0.0
26/02:15pm 17.2 14.5 3.6 40 6.4 NNW 7 15 4 8 1012.9 - 0.0
26/02:00pm 17.2 14.7 3.8 41 6.3 NW 6 13 3 7 1012.9 - 0.0
26/01:45pm 17.0 14.5 4.0 42 6.1 NNW 6 11 3 6 1013.0 - 0.0
26/01:30pm 16.5 13.4 3.8 42 5.9 NNE 9 19 5 10 1013.1 - 0.0
26/01:15pm 16.8 14.2 4.1 43 6.0 N 7 13 4 7 1013.3 - 0.0
26/01:00pm 16.9 14.9 4.2 43 6.0 NNE 4 15 2 8 1013.5 - 0.0
26/12:45pm 16.4 14.3 3.8 43 5.9 ESE 4 11 2 6 1013.7 - 0.0
26/12:30pm 16.4 13.8 4.3 44 5.7 ENE 7 13 4 7 1014.0 - 0.0
26/12:15pm 15.8 13.3 3.7 44 5.6 - 6 13 3 7 1014.2 - 0.0
26/12:00pm 16.0 13.5 3.9 44 5.6 NNE 6 11 3 6 1014.4 - 0.0
26/11:45am 15.7 13.2 3.7 44 5.6 WNW 6 11 3 6 1014.7 - 0.0
26/11:30am 15.5 13.0 3.6 45 5.5 N 6 11 3 6 1014.8 - 0.0
26/11:15am 15.3 12.6 3.7 46 5.4 W 7 13 4 7 1014.9 - 0.0
26/11:00am 15.4 12.9 3.8 46 5.4 W 6 9 3 5 1014.9 - 0.0
26/10:45am 15.2 12.8 4.2 48 5.1 NNW 6 13 3 7 1015.0 - 0.0
26/10:30am 15.1 12.8 4.8 50 4.9 ENE 6 11 3 6 1015.0 - 0.0
26/10:15am 14.4 11.9 4.5 51 4.6 NE 7 11 4 6 1015.1 - 0.0
26/10:00am 14.4 11.9 4.5 51 4.6 NNE 7 11 4 6 1015.0 - 0.0
26/09:45am 14.0 11.5 4.8 54 4.3 NE 7 11 4 6 1015.0 - 0.0
26/09:30am 13.0 10.6 4.4 56 4.0 NE 6 11 3 6 1014.9 - 0.0
26/09:15am 12.3 9.7 4.3 58 3.7 ENE 7 11 4 6 1014.7 - 0.0
26/09:00am 11.6 8.1 3.7 58 3.5 E 11 13 6 7 1014.5 - 0.0
26/08:45am 11.8 9.1 3.9 58 3.6 ENE 7 13 4 7 1014.4 - 0.0
26/08:30am 11.1 8.1 4.2 62 3.1 ENE 9 13 5 7 1014.3 - 0.0
26/08:15am 9.3 6.2 3.8 68 2.4 ENE 9 11 5 6 1014.3 - 0.0
26/08:00am 7.4 3.8 2.8 72 1.9 E 11 13 6 7 1014.2 - 0.0
26/07:45am 6.3 3.0 2.5 77 1.6 E 9 13 5 7 1014.0 - 0.0
26/07:30am 5.2 2.3 1.6 77 1.4 SE 6 11 3 6 1013.8 - 0.0
26/07:15am 5.8 2.8 1.8 75 1.6 W 7 11 4 6 1013.5 - 0.0
26/07:00am 5.9 3.1 1.9 75 1.6 WNW 6 9 3 5 1013.2 - 0.0
26/06:45am 5.4 2.8 1.2 74 1.7 NE 4 9 2 5 1012.9 - 0.0
26/06:30am 7.5 3.7 1.6 66 2.4 N 11 22 6 12 1012.7 - 0.0
26/06:15am 8.6 3.3 2.8 67 2.5 NNW 20 24 11 13 1012.3 - 0.0
26/06:00am 8.2 3.1 2.9 69 2.3 NW 19 26 10 14 1012.4 - 0.0
26/05:45am 5.5 0.7 2.4 80 1.3 NW 17 24 9 13 1012.4 - 0.0
26/05:30am 4.2 -0.1 1.0 80 1.2 NW 13 19 7 10 1012.2 - 0.0
26/05:15am 4.6 0.7 1.1 78 1.4 NW 11 19 6 10 1011.9 - 0.0
26/05:00am 5.6 0.7 2.0 77 1.5 NNW 17 24 9 13 1011.6 - 0.0
26/04:45am 4.3 0.0 1.1 80 1.3 NNW 13 24 7 13 1011.5 - 0.0
26/04:30am 4.4 0.5 1.1 79 1.3 N 11 19 6 10 1011.4 - 0.0
26/04:15am 4.6 1.5 1.4 80 1.3 N 7 17 4 9 1011.6 - 0.0
26/04:00am 4.1 1.5 0.8 79 1.3 NNW 4 11 2 6 1011.8 - 0.0
26/03:45am 5.4 1.9 1.2 74 1.7 N 9 17 5 9 1011.7 - 0.0
26/03:30am 5.0 0.4 1.6 79 1.4 NNE 15 19 8 10 1011.7 - 0.0
26/03:15am 4.4 0.0 0.6 76 1.5 NNE 13 17 7 9 1012.0 - 0.0
26/03:00am 5.6 1.3 1.2 73 1.8 NNE 13 17 7 9 1012.1 - 0.0
26/02:45am 6.4 2.1 1.2 69 2.1 NNE 13 17 7 9 1012.2 - 0.0
26/02:30am 6.8 2.2 1.3 68 2.2 NNE 15 19 8 10 1012.3 - 0.0
26/02:15am 7.2 3.0 1.5 67 2.3 N 13 20 7 11 1012.4 - 0.0
26/02:00am 7.2 2.2 1.4 66 2.4 N 17 20 9 11 1012.4 - 0.0
26/01:45am 7.5 2.2 1.6 66 2.4 N 19 24 10 13 1012.3 - 0.0
26/01:30am 7.5 2.2 1.6 66 2.4 N 19 22 10 12 1012.3 - 0.0
26/01:15am 7.5 3.3 1.7 66 2.4 - 13 20 7 11 1012.3 - 0.0
26/01:00am 7.4 2.8 1.7 67 2.3 N 15 19 8 10 1012.4 - 0.0
26/12:45am 7.3 2.0 2.1 69 2.2 N 19 22 10 12 1012.3 - 0.0
26/12:30am 6.1 0.6 1.6 73 1.8 N 20 24 11 13 1012.2 - 0.0
26/12:15am 5.9 0.5 1.0 71 1.9 NNW 19 24 10 13 1012.4 - 0.0
26/12:00am 6.6 2.7 1.3 69 2.1 NNW 11 19 6 10 1012.6 - 0.0
 
Date/Time
EST
Temp
°C
App
Temp
°C
Dew
Point
°C
Rel
Hum
%
Delta-T
°C
Wind Press
QNH
hPa
Press
MSL
hPa
Rain since
9am
mm
Dir  Spd
km/h
Gust
km/h
Spd
kts
Gust
kts
25/11:45pm 7.2 3.4 1.5 67 2.3 NNW 11 19 6 10 1012.7 - 0.0
25/11:30pm 7.8 3.6 1.7 65 2.5 NNW 13 24 7 13 1012.9 - 0.0
25/11:15pm 8.2 3.7 1.9 64 2.6 NNW 15 20 8 11 1013.0 - 0.0
25/11:00pm 8.2 3.3 1.8 64 2.7 NNW 17 24 9 13 1013.0 - 0.0
25/10:45pm 8.6 3.1 2.1 63 2.7 NW 20 24 11 13 1013.0 - 0.0
25/10:30pm 8.3 3.1 2.2 65 2.6 NW 19 24 10 13 1013.2 - 0.0
25/10:15pm 8.4 3.1 2.1 64 2.6 NW 19 20 10 11 1013.2 - 0.0

Latest Capital City Observations: Canberra | Sydney | Melbourne | Brisbane | Adelaide | Perth | Hobart | Darwin

Other Formats:

Comma delimited format used in spreadsheet applications
http://www.bom.gov.au/fwo/IDN60901/IDN60901.95757.axf

JavaScript Object Notation format (JSON) in row-major order
http://www.bom.gov.au/fwo/IDN60901/IDN60901.95757.json